Time;durP1;ratioP1;P1;durP2;ratioP2;P2;SDS_P1;SDS_P2;PMS_P1;PMS_P2;Temp;Humidity;BMP_temperature;BMP_pressure;BME280_temperature;BME280_humidity;BME280_pressure;Samples;Min_cycle;Max_cycle;Signal;HPM_P1;HPM_P2
2022/06/14 00:03:11;;;;;;;13.43;2.88;;;;;;;11.00;81.09;102326.63;4936374;29;20178;-67
2022/06/14 00:05:37;;;;;;;4.47;2.80;;;;;;;11.02;80.16;102332.63;4950232;29;20054;-67
2022/06/14 00:08:03;;;;;;;6.32;2.50;;;;;;;11.00;80.97;102315.94;4950519;29;20490;-67
2022/06/14 00:10:28;;;;;;;5.63;2.95;;;;;;;11.09;81.24;102325.66;4950632;29;20439;-67
2022/06/14 00:12:53;;;;;;;8.82;3.50;;;;;;;11.07;80.24;102332.97;4950133;29;20059;-67
2022/06/14 00:15:19;;;;;;;6.38;2.38;;;;;;;11.04;80.17;102332.47;4950392;29;20074;-67
2022/06/14 00:17:45;;;;;;;6.38;2.45;;;;;;;10.94;80.04;102325.44;4950392;29;20159;-67
2022/06/14 00:20:11;;;;;;;8.38;2.30;;;;;;;10.99;80.06;102327.63;4950396;29;20039;-67
2022/06/14 00:22:37;;;;;;;11.60;2.75;;;;;;;11.00;79.36;102341.81;4933484;29;20031;-67
2022/06/14 00:25:03;;;;;;;3.22;2.10;;;;;;;10.98;79.50;102339.31;4950621;29;20047;-67
2022/06/14 00:27:29;;;;;;;7.63;2.55;;;;;;;10.96;79.21;102339.47;4931709;29;20091;-67
2022/06/14 00:29:54;;;;;;;10.57;3.85;;;;;;;10.94;79.13;102327.28;4932058;29;20086;-67
2022/06/14 00:32:20;;;;;;;6.18;3.28;;;;;;;10.90;80.22;102342.78;4931842;29;20408;-67
2022/06/14 00:34:45;;;;;;;6.35;2.92;;;;;;;10.84;80.22;102332.75;4932178;29;20491;-67
2022/06/14 00:37:16;;;;;;;7.53;2.75;;;;;;;10.81;79.89;102348.25;4931827;29;20050;-67
2022/06/14 00:39:42;;;;;;;5.77;2.53;;;;;;;10.78;80.71;102345.91;4931974;29;20034;-67
2022/06/14 00:42:20;;;;;;;4.07;2.78;;;;;;;10.74;81.00;102335.56;4931522;29;20483;-66
2022/06/14 00:45:04;;;;;;;10.70;2.63;;;;;;;10.68;81.33;102340.69;4932135;29;20051;-66
2022/06/14 00:47:35;;;;;;;9.18;2.55;;;;;;;10.67;81.23;102339.88;4932129;29;20051;-66
2022/06/14 00:50:04;;;;;;;9.40;3.20;;;;;;;10.68;82.28;102335.34;4932153;29;20446;-67
2022/06/14 00:52:38;;;;;;;10.40;3.50;;;;;;;10.64;81.78;102342.03;4932327;29;20410;-67
2022/06/14 00:55:12;;;;;;;14.02;3.42;;;;;;;10.59;81.52;102350.50;4936259;29;20039;-67
2022/06/14 00:57:47;;;;;;;7.90;3.13;;;;;;;10.54;81.72;102336.81;4953999;29;20035;-67
2022/06/14 01:00:18;;;;;;;9.00;2.65;;;;;;;10.51;83.39;102329.13;4953914;29;20039;-67
2022/06/14 01:02:52;;;;;;;;;;;;;;;10.50;80.37;102330.94;4954287;29;20113;-67
2022/06/14 01:05:23;;;;;;;5.55;2.83;;;;;;;10.38;82.30;102329.56;4953874;29;19914;-67
2022/06/14 01:07:56;;;;;;;6.82;3.05;;;;;;;10.34;82.97;102319.38;4953773;29;20031;-67
2022/06/14 01:10:32;;;;;;;8.63;3.00;;;;;;;10.34;83.00;102330.03;4953860;29;20964;-67
2022/06/14 01:13:01;;;;;;;11.30;4.05;;;;;;;10.32;83.49;102330.19;4953624;29;20030;-67
2022/06/14 01:15:30;;;;;;;13.68;3.42;;;;;;;10.21;83.92;102304.59;4953795;29;20037;-67
2022/06/14 01:18:04;;;;;;;9.25;3.75;;;;;;;10.14;84.95;102314.25;4953704;29;20078;-67
2022/06/14 01:20:30;;;;;;;9.05;2.60;;;;;;;10.02;85.41;102316.31;4953691;29;20121;-67
2022/06/14 01:22:56;;;;;;;7.30;2.95;;;;;;;9.88;85.07;102314.22;4953603;29;20050;-68
2022/06/14 01:25:24;;;;;;;3.78;2.80;;;;;;;9.87;85.18;102313.38;4953683;28;20039;-68
2022/06/14 01:27:51;;;;;;;7.30;3.08;;;;;;;9.88;84.72;102319.56;4953498;29;20399;-67
2022/06/14 01:30:19;;;;;;;7.57;2.47;;;;;;;9.89;84.97;102323.88;4953360;29;20082;-67
2022/06/14 01:32:47;;;;;;;9.40;3.03;;;;;;;9.88;85.20;102323.06;4953366;29;20119;-67
2022/06/14 01:35:18;;;;;;;14.63;4.05;;;;;;;9.88;85.12;102319.56;4953312;29;20038;-67
2022/06/14 01:37:47;;;;;;;7.38;2.85;;;;;;;9.88;85.80;102312.41;4953180;29;20027;-67
2022/06/14 01:40:12;;;;;;;6.15;3.00;;;;;;;9.84;85.47;102315.53;4952944;29;20681;-67
2022/06/14 01:43:04;;;;;;;8.85;3.22;;;;;;;9.82;85.11;102322.81;4952954;29;20035;-67
2022/06/14 01:45:45;;;;;;;6.00;2.78;;;;;;;9.78;85.75;102306.31;4953018;29;20030;-67
2022/06/14 01:48:21;;;;;;;6.50;3.00;;;;;;;9.74;85.56;102306.78;4953129;29;20023;-68
2022/06/14 01:54:35;;;;;;;11.55;4.43;;;;;;;9.82;85.55;102310.38;4953411;29;20081;-68
2022/06/14 01:57:04;;;;;;;9.07;2.90;;;;;;;9.76;85.84;102308.31;4950354;29;20402;-67
2022/06/14 01:59:56;;;;;;;8.77;3.33;;;;;;;9.75;85.64;102308.47;4952460;29;20027;-67
2022/06/14 02:02:21;;;;;;;;;;;;;;;9.79;83.63;102293.84;4952630;29;20031;-67
2022/06/14 02:04:59;;;;;;;7.17;2.73;;;;;;;9.73;86.12;102305.13;4951052;28;19914;-67
2022/06/14 02:07:53;;;;;;;9.75;2.85;;;;;;;9.66;86.69;102304.91;4952292;29;20070;-67
2022/06/14 02:10:34;;;;;;;11.82;4.07;;;;;;;9.66;87.05;102299.56;4939282;29;20047;-67
2022/06/14 02:13:17;;;;;;;8.35;3.40;;;;;;;9.62;87.02;102296.38;4952295;29;20058;-67
2022/06/14 02:15:56;;;;;;;8.10;3.05;;;;;;;9.64;86.77;102297.06;4952290;29;20494;-67
2022/06/14 02:18:40;;;;;;;6.90;2.70;;;;;;;9.60;86.71;102309.03;4952184;29;20164;-67
2022/06/14 02:21:12;;;;;;;10.38;3.30;;;;;;;9.57;87.06;102306.66;4951797;29;20509;-67
2022/06/14 02:23:46;;;;;;;9.30;3.30;;;;;;;9.54;87.41;102295.50;4952073;29;20111;-67
2022/06/14 02:26:20;;;;;;;9.52;3.72;;;;;;;9.46;86.97;102288.28;4952235;29;20121;-67
2022/06/14 02:28:51;;;;;;;12.27;4.35;;;;;;;9.41;86.97;102302.03;4951943;29;20082;-67
2022/06/14 02:31:23;;;;;;;10.70;4.18;;;;;;;9.38;87.47;102298.88;4951898;29;20050;-67
2022/06/14 02:33:55;;;;;;;9.98;3.60;;;;;;;9.39;87.09;102295.19;4952014;29;20062;-67
2022/06/14 02:36:28;;;;;;;7.47;2.17;;;;;;;9.42;87.15;102289.56;4951890;29;20057;-67
2022/06/14 02:39:06;;;;;;;7.45;3.67;;;;;;;9.39;87.22;102289.88;4951720;29;20031;-67
2022/06/14 02:41:49;;;;;;;7.38;3.17;;;;;;;9.34;87.71;102286.81;4951315;29;20483;-67
2022/06/14 02:44:22;;;;;;;12.15;4.35;;;;;;;9.27;87.53;102277.78;4951771;29;20545;-67
2022/06/14 02:47:01;;;;;;;9.52;3.40;;;;;;;9.25;87.23;102280.59;4951290;29;20983;-67
2022/06/14 02:49:40;;;;;;;6.93;2.60;;;;;;;9.20;87.46;102280.22;4951893;29;20062;-67
2022/06/14 02:52:11;;;;;;;8.43;3.97;;;;;;;9.17;87.90;102280.53;4951637;29;20082;-67
2022/06/14 02:54:44;;;;;;;8.18;3.08;;;;;;;9.15;87.77;102275.34;4951560;29;20037;-67
2022/06/14 02:57:22;;;;;;;6.38;2.95;;;;;;;9.09;88.32;102270.66;4951184;29;20062;-67
2022/06/14 02:59:59;;;;;;;6.68;3.25;;;;;;;9.06;89.00;102276.25;4951539;29;20031;-68
2022/06/14 03:02:31;;;;;;;5.50;2.83;;;;;;;9.04;88.94;102278.25;4951398;29;20056;-68
2022/06/14 03:05:02;;;;;;;9.32;3.00;;;;;;;8.96;89.07;102267.50;4951105;29;20030;-67
2022/06/14 03:08:03;;;;;;;;;;;;;;;9.01;87.06;102273.19;4951708;29;20035;-67
2022/06/14 03:11:02;;;;;;;6.45;4.00;;;;;;;9.01;88.40;102281.19;4891972;29;19925;-67
2022/06/14 03:13:43;;;;;;;7.85;3.70;;;;;;;8.95;88.71;102273.81;4950983;29;20035;-67
2022/06/14 03:16:33;;;;;;;9.93;3.17;;;;;;;8.95;89.30;102279.97;4950563;28;20027;-67
2022/06/14 03:19:43;;;;;;;13.07;4.32;;;;;;;8.94;89.11;102277.47;4951114;29;20074;-67
2022/06/14 03:22:22;;;;;;;5.72;2.92;;;;;;;8.95;89.18;102282.63;4935980;29;20398;-67
2022/06/14 03:25:17;;;;;;;12.18;3.70;;;;;;;8.85;89.17;102267.72;4950946;29;20027;-67
2022/06/14 03:28:10;;;;;;;8.75;3.03;;;;;;;8.84;89.52;102276.69;4951023;29;20027;-67
2022/06/14 03:30:45;;;;;;;7.68;3.35;;;;;;;8.81;89.66;102279.66;4951141;29;20545;-67
2022/06/14 03:33:31;;;;;;;6.60;3.35;;;;;;;8.80;89.52;102286.78;4950961;29;20395;-67
2022/06/14 03:35:58;;;;;;;9.77;3.67;;;;;;;8.73;88.84;102277.75;4951110;29;20027;-67
2022/06/14 03:38:51;;;;;;;8.75;3.53;;;;;;;8.75;89.05;102281.94;4932354;29;20035;-67
2022/06/14 03:41:20;;;;;;;8.95;3.53;;;;;;;8.77;89.72;102284.44;4930055;29;20495;-67
2022/06/14 03:43:47;;;;;;;11.50;3.72;;;;;;;8.78;89.79;102281.63;4932698;29;20086;-67
2022/06/14 03:46:28;;;;;;;10.45;3.70;;;;;;;8.77;90.01;102281.75;4932487;29;20031;-67
2022/06/14 03:48:57;;;;;;;4.60;2.88;;;;;;;8.78;89.61;102281.63;4932621;29;20483;-68
2022/06/14 03:51:34;;;;;;;8.05;3.50;;;;;;;8.82;89.76;102284.81;4932599;29;20393;-67
2022/06/14 03:54:15;;;;;;;7.75;3.50;;;;;;;8.84;89.65;102274.88;4932483;29;20558;-67
2022/06/14 03:56:53;;;;;;;10.02;3.88;;;;;;;8.85;89.46;102279.19;4945828;29;20051;-67
2022/06/14 03:59:44;;;;;;;6.72;3.85;;;;;;;8.86;89.68;102269.41;4951096;29;20058;-68
2022/06/14 04:02:53;;;;;;;9.77;3.20;;;;;;;8.81;89.63;102274.34;4951077;29;20031;-67
2022/06/14 04:05:25;;;;;;;7.40;3.28;;;;;;;8.83;90.19;102275.88;4950875;29;20553;-67
2022/06/14 04:07:59;;;;;;;14.98;4.95;;;;;;;8.81;89.59;102271.69;4951077;29;20390;-67
2022/06/14 04:10:39;;;;;;;10.52;3.78;;;;;;;8.91;89.81;102283.94;4951108;29;20027;-68
2022/06/14 04:13:25;;;;;;;8.15;4.18;;;;;;;8.92;89.73;102284.75;4950957;29;20105;-68
2022/06/14 04:16:14;;;;;;;7.05;4.00;;;;;;;9.00;89.13;102283.00;4951093;29;20023;-67
2022/06/14 04:19:16;;;;;;;10.27;3.08;;;;;;;9.05;89.33;102292.38;4940880;29;20406;-67
2022/06/14 04:22:05;;;;;;;7.90;3.22;;;;;;;9.13;88.99;102287.13;4951172;29;20031;-67
2022/06/14 04:24:33;;;;;;;7.15;3.25;;;;;;;9.18;89.10;102293.69;4950954;29;20035;-68
2022/06/14 04:27:30;;;;;;;9.95;3.88;;;;;;;9.27;88.85;102296.41;4951029;28;20023;-67
2022/06/14 04:30:17;;;;;;;11.57;4.35;;;;;;;9.35;88.42;102302.66;4954588;29;20117;-67
2022/06/14 04:33:14;;;;;;;7.20;3.42;;;;;;;9.44;88.72;102300.91;4954073;29;20031;-67
2022/06/14 04:35:39;;;;;;;11.45;4.53;;;;;;;9.50;88.29;102302.94;4954287;29;20419;-67
2022/06/14 04:38:14;;;;;;;8.20;3.70;;;;;;;9.59;88.84;102301.19;4954404;29;20031;-68
2022/06/14 04:40:47;;;;;;;9.25;3.50;;;;;;;9.70;88.32;102295.63;4954413;29;20283;-67
2022/06/14 04:43:18;;;;;;;8.27;3.63;;;;;;;9.96;87.35;102300.13;4968988;28;21097;-67
2022/06/14 04:45:56;;;;;;;7.28;3.60;;;;;;;10.30;85.55;102300.19;4953908;29;20037;-68
2022/06/14 04:48:29;;;;;;;12.50;4.60;;;;;;;10.35;85.16;102297.88;4954295;29;20406;-67
2022/06/14 04:51:16;;;;;;;8.85;3.90;;;;;;;10.34;85.46;102300.69;4953910;28;20121;-67
2022/06/14 04:53:56;;;;;;;11.02;4.57;;;;;;;10.36;85.38;102301.38;4954248;29;20070;-67
2022/06/14 04:56:27;;;;;;;6.95;3.72;;;;;;;10.36;85.84;102301.38;4953799;29;20126;-68
2022/06/14 04:58:58;;;;;;;8.23;3.40;;;;;;;10.37;85.73;102292.38;4954108;29;20043;-67
2022/06/14 05:01:34;;;;;;;6.93;3.57;;;;;;;10.39;85.46;102303.72;4954098;29;20089;-67
2022/06/14 05:04:07;;;;;;;9.38;4.18;;;;;;;10.44;86.07;102299.56;4954026;29;20027;-67
2022/06/14 05:06:45;;;;;;;11.82;4.45;;;;;;;10.70;85.76;102296.00;4953862;29;20464;-67
2022/06/14 05:09:16;;;;;;;13.55;4.28;;;;;;;11.03;84.67;102296.94;4953840;29;20386;-67
2022/06/14 05:12:01;;;;;;;13.10;5.93;;;;;;;11.17;84.19;102285.59;4953769;29;20034;-67
2022/06/14 05:14:34;;;;;;;8.38;4.05;;;;;;;11.22;84.22;102293.13;4953602;29;20129;-67
2022/06/14 05:17:06;;;;;;;11.07;5.85;;;;;;;11.24;84.49;102295.63;4953745;29;20082;-67
2022/06/14 05:19:55;;;;;;;14.45;6.80;;;;;;;11.25;84.38;102297.31;4954132;29;20034;-68
2022/06/14 05:22:26;;;;;;;11.15;6.22;;;;;;;11.29;84.27;102310.16;4953376;29;20039;-67
2022/06/14 05:24:52;;;;;;;16.48;8.27;;;;;;;11.36;84.25;102307.66;4953748;29;20031;-67
2022/06/14 05:27:32;;;;;;;14.77;7.53;;;;;;;11.42;84.20;102306.97;4953428;29;20128;-68
2022/06/14 05:30:35;;;;;;;12.88;6.13;;;;;;;11.52;83.88;102304.16;4953563;29;20027;-68
2022/06/14 05:33:28;;;;;;;13.90;7.57;;;;;;;11.60;83.82;102309.50;4953578;29;20884;-67
2022/06/14 05:36:04;;;;;;;15.48;6.38;;;;;;;11.67;83.95;102309.66;4952685;28;20039;-67
2022/06/14 05:38:58;;;;;;;18.83;8.27;;;;;;;11.83;83.91;102313.16;4953160;28;20027;-67
2022/06/14 05:41:37;;;;;;;15.43;8.40;;;;;;;12.17;82.56;102305.94;4953348;29;20031;-67
2022/06/14 05:44:12;;;;;;;18.45;9.85;;;;;;;12.27;82.36;102312.75;4953327;29;20368;-67
2022/06/14 05:46:52;;;;;;;20.75;12.80;;;;;;;12.23;82.07;102311.44;4953201;29;20027;-67
2022/06/14 05:49:23;;;;;;;19.65;13.73;;;;;;;12.17;82.68;102311.28;4967926;28;20402;-67
2022/06/14 05:52:00;;;;;;;;;;;;;;;12.18;82.11;102312.94;4953441;28;20043;-67
2022/06/14 05:54:31;;;;;;;22.17;12.30;;;;;;;12.12;83.47;102319.81;4953296;29;19918;-67
2022/06/14 05:57:03;;;;;;;16.73;8.77;;;;;;;12.13;83.26;102312.63;4951518;28;20470;-67
2022/06/14 05:59:37;;;;;;;16.67;9.23;;;;;;;12.25;83.07;102320.13;4953037;29;20031;-68
2022/06/14 06:02:14;;;;;;;15.80;9.15;;;;;;;12.71;82.51;102312.25;4953050;29;20023;-67
2022/06/14 06:04:58;;;;;;;18.70;8.32;;;;;;;13.45;80.83;102317.19;4953052;29;20550;-67
2022/06/14 06:07:27;;;;;;;12.80;7.13;;;;;;;14.01;76.98;102324.88;4952830;29;20122;-67
2022/06/14 06:10:21;;;;;;;18.00;8.18;;;;;;;13.85;78.26;102315.16;4952820;29;20061;-67
2022/06/14 06:12:57;;;;;;;19.52;7.95;;;;;;;13.61;78.59;102320.75;4952588;29;20023;-67
2022/06/14 06:15:31;;;;;;;13.73;8.02;;;;;;;13.44;78.62;102314.66;4951370;29;20170;-67
2022/06/14 06:18:04;;;;;;;14.98;7.15;;;;;;;13.32;79.22;102312.41;4951382;29;20360;-67
2022/06/14 06:20:37;;;;;;;12.02;5.55;;;;;;;13.34;79.07;102331.00;4952645;29;20074;-66
2022/06/14 06:23:12;;;;;;;14.90;6.38;;;;;;;13.26;77.66;102317.66;4952568;29;20070;-69
2022/06/14 06:25:41;;;;;;;15.63;5.07;;;;;;;13.20;78.00;102323.69;4952555;29;20074;-66
2022/06/14 06:28:13;;;;;;;12.50;5.70;;;;;;;13.18;78.05;102328.38;4952430;29;20491;-66
2022/06/14 06:30:44;;;;;;;13.23;6.82;;;;;;;13.13;78.11;102321.75;4952438;29;20031;-66
2022/06/14 06:33:13;;;;;;;12.27;5.38;;;;;;;13.15;77.60;102319.72;4952423;29;20129;-66
2022/06/14 06:36:03;;;;;;;11.98;5.35;;;;;;;13.20;77.45;102321.84;4952377;29;20387;-66
2022/06/14 06:38:38;;;;;;;9.48;4.55;;;;;;;13.28;76.33;102323.66;4952157;29;20023;-66
2022/06/14 06:44:22;;;;;;;9.20;3.28;;;;;;;13.45;74.98;102319.88;4952037;29;20098;-66
2022/06/14 06:46:54;;;;;;;13.30;4.28;;;;;;;13.54;72.58;102329.50;4951672;29;20489;-66
2022/06/14 06:49:22;;;;;;;;;;;;;;;13.62;74.08;102335.81;4952165;29;20106;-67
2022/06/14 06:51:54;;;;;;;10.20;3.17;;;;;;;13.66;70.71;102329.09;4951115;28;20465;-67
2022/06/14 06:54:30;;;;;;;14.05;4.60;;;;;;;13.68;69.71;102332.44;4951909;29;20035;-67
2022/06/14 06:56:59;;;;;;;7.63;3.60;;;;;;;13.75;69.17;102333.34;4951521;29;20047;-68
2022/06/14 06:59:24;;;;;;;6.38;1.80;;;;;;;13.78;65.44;102327.63;4951742;29;20442;-67
2022/06/14 07:01:54;;;;;;;5.32;1.38;;;;;;;13.80;64.29;102323.75;4951929;29;20031;-66
2022/06/14 07:07:18;;;;;;;5.78;1.80;;;;;;;13.93;64.14;102330.34;4951545;29;20398;-71
2022/06/14 07:09:57;;;;;;;9.80;1.85;;;;;;;13.88;65.20;102308.59;4949255;29;20031;-67
2022/06/14 07:12:29;;;;;;;5.95;2.30;;;;;;;14.01;65.52;102317.66;4947403;29;20034;-70
2022/06/14 07:15:02;;;;;;;2.97;2.13;;;;;;;14.12;64.18;102326.28;4947808;29;20367;-68
2022/06/14 07:17:34;;;;;;;5.50;2.00;;;;;;;14.13;64.26;102323.44;4947894;29;20544;-66
2022/06/14 07:20:11;;;;;;;;;;;;;;;14.22;66.65;102325.00;4948079;29;20038;-67
2022/06/14 07:23:21;;;;;;;5.60;1.50;;;;;;;14.30;64.92;102325.94;4949964;28;19918;-67
2022/06/14 07:25:56;;;;;;;4.03;2.30;;;;;;;14.30;63.83;102324.06;4941229;29;20085;-67
2022/06/14 07:28:42;;;;;;;3.55;1.65;;;;;;;14.36;64.18;102328.72;4951637;29;20519;-68
2022/06/14 07:31:13;;;;;;;6.97;2.40;;;;;;;14.34;61.78;102322.69;4951437;28;20483;-67
2022/06/14 07:33:38;;;;;;;5.73;1.33;;;;;;;14.38;60.27;102326.69;4951555;29;20035;-67
2022/06/14 07:36:27;;;;;;;6.63;2.15;;;;;;;14.35;62.03;102308.25;4951320;29;20301;-67
2022/06/14 07:39:02;;;;;;;7.82;2.42;;;;;;;14.40;60.51;102323.81;4951092;29;20085;-67
2022/06/14 07:41:52;;;;;;;5.13;2.00;;;;;;;14.47;62.21;102322.88;4951104;29;20038;-67
2022/06/14 07:44:47;;;;;;;3.95;2.08;;;;;;;14.53;61.81;102313.28;4951168;29;20031;-67
2022/06/14 07:47:31;;;;;;;5.75;1.90;;;;;;;14.64;63.31;102325.38;4951076;29;20035;-68
2022/06/14 07:50:04;;;;;;;5.68;1.67;;;;;;;14.64;59.25;102312.78;4950862;29;20038;-67
2022/06/14 07:52:43;;;;;;;9.45;1.60;;;;;;;14.74;61.69;102320.56;4951198;29;20054;-67
2022/06/14 07:55:35;;;;;;;7.28;2.78;;;;;;;14.80;62.21;102324.34;4951263;29;20039;-67
2022/06/14 07:58:06;;;;;;;4.20;1.83;;;;;;;14.82;60.45;102322.31;4951285;29;20043;-67
2022/06/14 08:04:10;;;;;;;6.95;2.10;;;;;;;15.05;60.86;102316.78;4955099;29;20058;-67
2022/06/14 08:06:47;;;;;;;8.07;1.92;;;;;;;15.89;59.38;102321.50;4955100;29;20383;-67
2022/06/14 08:09:19;;;;;;;6.57;2.00;;;;;;;17.21;55.67;102313.22;4954738;29;20367;-63
2022/06/14 08:11:57;;;;;;;6.68;2.30;;;;;;;17.92;54.49;102312.66;4954694;29;20037;-64
2022/06/14 08:14:28;;;;;;;10.80;2.80;;;;;;;18.73;50.29;102305.09;4954714;29;20053;-64
2022/06/14 08:16:54;;;;;;;;;;;;;;;19.74;53.87;102311.56;4954938;29;20034;-64
2022/06/14 08:19:33;;;;;;;6.28;2.88;;;;;;;21.71;46.30;102294.81;4954837;29;20370;-64
2022/06/14 08:22:10;;;;;;;6.57;1.88;;;;;;;24.09;43.14;102300.63;4954643;29;20031;-64
2022/06/14 08:24:44;;;;;;;9.30;2.42;;;;;;;25.41;37.29;102297.69;4954816;29;20125;-64
2022/06/14 08:27:15;;;;;;;4.72;1.63;;;;;;;26.22;33.67;102302.88;4937361;29;20062;-64
2022/06/14 08:30:02;;;;;;;3.10;1.80;;;;;;;27.02;34.94;102301.75;4954562;29;20034;-64
2022/06/14 08:32:37;;;;;;;3.53;1.60;;;;;;;28.38;30.52;102299.09;4954476;29;20110;-64
2022/06/14 08:35:18;;;;;;;7.82;2.40;;;;;;;28.91;30.13;102286.72;4954514;29;20079;-64
2022/06/14 08:37:54;;;;;;;8.35;2.50;;;;;;;29.65;30.11;102295.72;4954506;29;20067;-64
2022/06/14 08:40:38;;;;;;;6.07;2.08;;;;;;;29.89;28.21;102293.00;4954417;29;20487;-65
2022/06/14 08:43:22;;;;;;;6.78;2.80;;;;;;;29.42;29.14;102294.53;4954219;29;20054;-65
2022/06/14 08:46:05;;;;;;;4.15;2.20;;;;;;;28.19;29.92;102295.31;4953865;29;20372;-64
2022/06/14 08:48:49;;;;;;;4.40;2.33;;;;;;;28.04;32.09;102284.44;4954204;29;20041;-65
2022/06/14 08:51:42;;;;;;;7.78;1.90;;;;;;;28.83;30.61;102285.41;4953564;28;20035;-65
2022/06/14 08:54:16;;;;;;;4.63;2.15;;;;;;;28.95;27.94;102285.88;4953824;29;20456;-64
2022/06/14 08:56:44;;;;;;;5.43;1.90;;;;;;;28.50;27.26;102281.47;4954113;29;20059;-64
2022/06/14 08:59:23;;;;;;;4.28;1.60;;;;;;;27.29;28.21;102285.06;4952868;29;20555;-65
2022/06/14 09:02:24;;;;;;;4.68;1.10;;;;;;;27.15;29.07;102281.22;4954117;29;20081;-65
2022/06/14 09:05:26;;;;;;;3.28;2.35;;;;;;;27.70;32.24;102282.28;4931716;29;20043;-65
2022/06/14 09:08:18;;;;;;;6.32;1.50;;;;;;;25.70;31.95;102283.69;4953815;29;20039;-65
2022/06/14 09:11:18;;;;;;;7.88;2.55;;;;;;;23.27;35.68;102291.19;4953765;29;20415;-64
2022/06/14 09:13:49;;;;;;;4.78;1.40;;;;;;;21.46;38.01;102281.47;4952903;28;20039;-65
2022/06/14 09:16:30;;;;;;;3.22;1.38;;;;;;;20.48;40.25;102286.16;4953850;29;20038;-64
2022/06/14 09:19:07;;;;;;;4.15;1.50;;;;;;;19.84;40.30;102285.63;4953755;29;20126;-65
2022/06/14 09:21:41;;;;;;;3.88;1.58;;;;;;;19.39;43.72;102283.09;4953900;29;20222;-64
2022/06/14 09:24:17;;;;;;;2.25;1.40;;;;;;;18.96;45.52;102286.50;4953658;29;21006;-64
2022/06/14 09:26:53;;;;;;;2.33;1.95;;;;;;;18.63;46.18;102286.66;4953562;29;20035;-64
2022/06/14 09:29:36;;;;;;;9.57;2.40;;;;;;;18.20;46.83;102283.72;4953451;29;20490;-64
2022/06/14 09:32:16;;;;;;;5.68;2.60;;;;;;;18.05;47.98;102292.91;4953410;29;20126;-65
2022/06/14 09:34:44;;;;;;;7.65;2.75;;;;;;;17.99;46.59;102280.22;4953499;29;20089;-65
2022/06/14 09:37:52;;;;;;;3.83;2.10;;;;;;;18.13;48.46;102278.31;4953371;29;20027;-65
2022/06/14 09:40:32;;;;;;;12.25;2.33;;;;;;;18.24;46.87;102282.25;4953460;29;20059;-64
2022/06/14 09:43:07;;;;;;;4.70;2.17;;;;;;;18.16;47.32;102276.03;4953281;29;20497;-65
2022/06/14 09:46:14;;;;;;;6.10;2.30;;;;;;;18.31;48.07;102273.09;4953029;29;20408;-64
2022/06/14 09:48:48;;;;;;;6.13;2.03;;;;;;;18.38;46.43;102276.56;4942607;29;20059;-65
2022/06/14 09:51:41;;;;;;;3.53;1.58;;;;;;;18.36;47.73;102273.25;4952972;28;20070;-65
2022/06/14 09:54:06;;;;;;;4.20;1.92;;;;;;;18.45;47.17;102264.94;4952618;29;20027;-65
2022/06/14 09:56:46;;;;;;;5.20;2.67;;;;;;;18.37;47.64;102256.00;4952842;29;20121;-65
2022/06/14 09:59:30;;;;;;;4.95;1.92;;;;;;;18.50;47.59;102254.31;4952984;29;20282;-65
2022/06/14 10:02:23;;;;;;;5.68;2.30;;;;;;;18.64;48.27;102258.59;4952964;29;20070;-64
2022/06/14 10:05:13;;;;;;;5.63;2.13;;;;;;;18.64;46.20;102250.47;4952932;29;20039;-65
2022/06/14 10:08:01;;;;;;;6.93;1.88;;;;;;;18.79;47.83;102251.06;4952937;29;20030;-65
2022/06/14 10:10:32;;;;;;;4.47;1.85;;;;;;;18.86;47.04;102245.59;4952699;28;20110;-64
2022/06/14 10:13:27;;;;;;;3.63;2.10;;;;;;;18.92;48.11;102230.41;4952545;29;20063;-65
2022/06/14 10:16:26;;;;;;;10.35;2.88;;;;;;;19.11;47.68;102234.81;4941176;29;20043;-65
2022/06/14 10:19:10;;;;;;;5.85;2.53;;;;;;;18.87;46.97;102233.75;4952765;29;20023;-64
2022/06/14 10:22:13;;;;;;;6.65;3.55;;;;;;;18.73;47.49;102238.38;4952783;29;20033;-65
2022/06/14 10:24:52;;;;;;;6.40;2.90;;;;;;;18.76;47.36;102237.97;4952074;28;20043;-64
2022/06/14 10:30:40;;;;;;;7.68;2.00;;;;;;;19.03;49.41;102217.00;4952447;29;20091;-64
2022/06/14 10:33:20;;;;;;;10.23;3.38;;;;;;;19.33;48.39;102221.72;4952156;29;20029;-65
2022/06/14 10:36:12;;;;;;;7.00;3.00;;;;;;;19.47;46.91;102225.16;4951792;29;20031;-65
2022/06/14 10:38:49;;;;;;;6.35;2.63;;;;;;;19.51;45.68;102220.94;4952246;29;20035;-65
2022/06/14 10:41:38;;;;;;;5.97;2.53;;;;;;;19.57;46.70;102217.38;4952213;29;20031;-65
2022/06/14 10:44:26;;;;;;;5.88;2.22;;;;;;;19.66;48.50;102220.59;4950893;29;20379;-65
2022/06/14 10:47:19;;;;;;;4.18;2.72;;;;;;;19.79;47.60;102217.78;5046601;28;20411;-65
2022/06/14 10:49:59;;;;;;;5.63;2.58;;;;;;;19.70;45.61;102208.28;5044780;28;20064;-64
2022/06/14 10:52:51;;;;;;;11.93;3.00;;;;;;;19.33;45.63;102207.38;5046531;28;20478;-64
2022/06/14 10:55:22;;;;;;;;;;;;;;;19.37;46.78;102205.91;5046574;28;20353;-65
2022/06/14 10:58:02;;;;;;;4.30;2.20;;;;;;;19.36;47.45;102202.38;5046498;28;19920;-64
2022/06/14 11:00:38;;;;;;;9.57;3.38;;;;;;;19.29;45.97;102198.06;5046445;28;20017;-64
2022/06/14 11:03:31;;;;;;;4.30;2.55;;;;;;;19.11;46.81;102207.78;5046286;28;20021;-65
2022/06/14 11:06:06;;;;;;;7.97;2.55;;;;;;;19.24;46.73;102198.72;5046417;28;20029;-65
2022/06/14 11:09:07;;;;;;;9.00;2.60;;;;;;;19.55;47.92;102188.88;5046385;28;20059;-65
2022/06/14 11:12:14;;;;;;;6.93;2.88;;;;;;;19.72;46.46;102189.13;5032659;28;20041;-65
2022/06/14 11:14:56;;;;;;;9.95;2.58;;;;;;;19.72;48.52;102192.66;5045639;28;20061;-65
2022/06/14 11:17:48;;;;;;;6.15;3.10;;;;;;;19.70;45.32;102187.50;5045485;28;20071;-65
2022/06/14 11:20:29;;;;;;;3.38;2.80;;;;;;;19.71;43.63;102182.91;5046144;28;20103;-69
2022/06/14 11:23:17;;;;;;;7.25;2.85;;;;;;;19.87;46.52;102178.75;5046162;28;20047;-68
2022/06/14 11:25:56;;;;;;;6.25;1.83;;;;;;;19.86;46.20;102169.00;5045832;28;20067;-69
2022/06/14 11:28:35;;;;;;;6.60;3.20;;;;;;;19.91;48.01;102169.97;5045689;28;20025;-69
2022/06/14 11:31:18;;;;;;;9.95;3.72;;;;;;;20.08;47.25;102172.03;5045849;28;20380;-69
2022/06/14 11:34:09;;;;;;;8.45;3.28;;;;;;;19.91;44.87;102177.25;5045656;28;20029;-69
2022/06/14 11:36:46;;;;;;;3.80;2.00;;;;;;;19.84;45.30;102171.91;5045799;28;20021;-69
2022/06/14 11:39:26;;;;;;;7.97;2.53;;;;;;;19.83;43.10;102162.16;5045542;28;20040;-69
2022/06/14 11:41:53;;;;;;;7.28;2.00;;;;;;;19.99;45.04;102173.41;5045629;28;20136;-69
2022/06/14 11:44:36;;;;;;;7.20;3.25;;;;;;;19.89;44.04;102153.13;5045530;28;20037;-69
2022/06/14 11:47:29;;;;;;;4.45;2.60;;;;;;;19.91;46.22;102155.56;5045640;28;20052;-65
2022/06/14 11:50:07;;;;;;;10.48;3.15;;;;;;;19.84;43.42;102161.09;5043738;28;20036;-64
2022/06/14 11:52:52;;;;;;;9.05;3.20;;;;;;;19.75;44.76;102148.88;5045195;28;20064;-64
2022/06/14 11:55:34;;;;;;;5.18;2.53;;;;;;;19.92;45.38;102144.53;5039889;28;20029;-65
2022/06/14 11:58:06;;;;;;;;;;;;;;;20.19;46.64;102140.66;5028818;28;20026;-64
2022/06/14 12:00:57;;;;;;;8.65;2.30;;;;;;;20.38;46.46;102136.00;5027999;28;19920;-64
2022/06/14 12:03:54;;;;;;;7.05;3.72;;;;;;;20.44;44.49;102144.03;5027292;28;20033;-64
2022/06/14 12:06:44;;;;;;;5.40;2.80;;;;;;;20.35;43.38;102143.53;5018409;28;20041;-64
2022/06/14 12:09:32;;;;;;;7.22;3.88;;;;;;;20.43;43.87;102141.56;5031293;28;20053;-64
2022/06/14 12:12:15;;;;;;;10.43;2.50;;;;;;;20.40;43.55;102142.03;5031494;28;20033;-64
2022/06/14 12:15:06;;;;;;;8.00;3.53;;;;;;;20.40;45.36;102137.41;5031573;28;20034;-64
2022/06/14 12:17:52;;;;;;;8.52;3.90;;;;;;;20.48;45.65;102130.84;5031586;28;20068;-64
2022/06/14 12:20:20;;;;;;;6.80;3.25;;;;;;;20.54;45.97;102127.22;5031317;28;20436;-64
2022/06/14 12:22:45;;;;;;;4.80;2.50;;;;;;;20.54;43.36;102132.66;5031360;28;20029;-64
2022/06/14 12:28:34;;;;;;;5.70;2.75;;;;;;;20.49;44.52;102132.53;5031535;28;20774;-64
2022/06/14 12:31:09;;;;;;;5.20;2.58;;;;;;;20.39;46.05;102126.84;5031327;28;20029;-64
2022/06/14 12:33:45;;;;;;;6.68;3.17;;;;;;;20.27;43.58;102122.19;5031257;28;20029;-64
2022/06/14 12:36:13;;;;;;;9.82;2.55;;;;;;;20.27;45.53;102132.19;5031189;28;20421;-64
2022/06/14 12:38:43;;;;;;;3.55;2.30;;;;;;;20.21;44.63;102114.97;5031092;28;20108;-64
2022/06/14 12:41:24;;;;;;;6.07;2.65;;;;;;;20.24;45.27;102116.41;5031079;28;20025;-64